createdAt,value
2023-03-27T00:01:01.572Z,81.41
2023-03-27T00:02:04.030Z,82.16
2023-03-27T00:03:06.282Z,81.94
2023-03-27T00:04:09.356Z,82.35
2023-03-27T00:05:11.519Z,81.76
2023-03-27T00:06:17.510Z,81.99
2023-03-27T00:07:20.076Z,82.53
2023-03-27T00:08:22.220Z,82.61
2023-03-27T00:09:25.920Z,82.43
2023-03-27T00:10:29.417Z,82.67
2023-03-27T00:11:31.946Z,82.36
2023-03-27T00:12:34.105Z,83.03
2023-03-27T00:13:49.059Z,82.62
2023-03-27T00:14:52.819Z,81.61
2023-03-27T00:15:57.059Z,82.83
2023-03-27T00:17:00.362Z,82.68
2023-03-27T00:18:04.226Z,83.35
2023-03-27T00:19:06.461Z,84.15
2023-03-27T00:20:09.005Z,82.86
2023-03-27T00:21:11.173Z,83.06
2023-03-27T00:22:13.294Z,83.69
2023-03-27T00:23:16.394Z,84.22
2023-03-27T00:24:18.572Z,84.08
2023-03-27T00:25:22.755Z,83.62
2023-03-27T00:26:24.932Z,82.99
2023-03-27T00:27:27.119Z,83.65
2023-03-27T00:28:30.312Z,84.85
2023-03-27T00:29:33.380Z,83.92
2023-03-27T00:30:36.049Z,84.04
2023-03-27T00:31:38.185Z,84.78
2023-03-27T00:32:40.777Z,84.48
2023-03-27T00:33:43.042Z,84.93
2023-03-27T00:34:45.224Z,85.34
2023-03-27T00:35:48.438Z,84.96
2023-03-27T00:36:52.024Z,85.38
2023-03-27T00:37:54.529Z,85.70
2023-03-27T00:38:56.744Z,85.62
2023-03-27T00:39:59.586Z,84.34
2023-03-27T00:41:02.298Z,85.01
2023-03-27T00:42:04.500Z,85.37
2023-03-27T00:43:30.141Z,85.96
2023-03-27T00:44:36.431Z,86.13
2023-03-27T00:45:39.488Z,86.68
2023-03-27T00:46:44.065Z,86.54
2023-03-27T00:47:48.513Z,86.19
2023-03-27T00:48:52.012Z,85.85
2023-03-27T00:49:54.236Z,86.03
2023-03-27T00:50:57.472Z,85.87
2023-03-27T00:52:02.013Z,86.13
2023-03-27T00:53:07.316Z,86.32
2023-03-27T00:54:09.959Z,86.15
2023-03-27T00:55:15.398Z,85.85
2023-03-27T00:56:18.043Z,85.92
2023-03-27T00:57:22.037Z,86.26
2023-03-27T00:58:34.010Z,86.82
2023-03-27T00:59:39.732Z,86.77
2023-03-27T01:00:41.884Z,86.99
2023-03-27T01:01:44.865Z,86.80
2023-03-27T01:02:48.875Z,86.86
2023-03-27T01:03:52.888Z,86.88
2023-03-27T01:04:55.589Z,86.82
2023-03-27T01:06:00.594Z,87.20
2023-03-27T01:07:04.721Z,87.42
2023-03-27T01:08:07.524Z,87.35
2023-03-27T01:09:09.623Z,87.85
2023-03-27T01:10:12.161Z,87.51
2023-03-27T01:11:35.533Z,87.38
2023-03-27T01:12:54.271Z,87.59
2023-03-27T01:14:13.565Z,86.62
2023-03-27T01:15:24.813Z,86.41
2023-03-27T01:16:44.887Z,87.23
2023-03-27T01:17:56.758Z,87.56
2023-03-27T01:19:01.521Z,87.05
2023-03-27T01:20:25.083Z,87.23
2023-03-27T01:21:47.822Z,87.30
2023-03-27T01:23:14.423Z,87.02
2023-03-27T01:24:22.649Z,86.31
2023-03-27T01:25:33.471Z,87.67
2023-03-27T01:26:58.423Z,87.79
2023-03-27T01:28:21.676Z,87.61
2023-03-27T01:29:35.970Z,87.96
2023-03-27T01:30:51.547Z,88.21
2023-03-27T01:32:36.123Z,88.28
2023-03-27T01:34:06.112Z,88.19
2023-03-27T01:35:20.761Z,88.36
2023-03-27T01:36:34.830Z,88.15
2023-03-27T01:37:50.364Z,87.63
2023-03-27T01:39:13.718Z,87.85
2023-03-27T01:40:19.804Z,87.82
2023-03-27T01:41:30.516Z,88.18
2023-03-27T01:42:39.238Z,88.10
2023-03-27T01:43:56.536Z,88.83
2023-03-27T01:45:06.889Z,88.78
2023-03-27T01:46:20.078Z,88.05
2023-03-27T01:47:33.094Z,87.53
2023-03-27T01:49:00.339Z,87.83
2023-03-27T01:50:02.463Z,87.50
2023-03-27T01:51:09.584Z,87.73
2023-03-27T01:52:15.006Z,88.15
2023-03-27T01:53:53.625Z,87.92
2023-03-27T01:55:03.505Z,88.50
2023-03-27T01:56:32.510Z,88.47
2023-03-27T01:57:48.901Z,87.89
2023-03-27T01:58:54.670Z,88.06
2023-03-27T02:00:18.198Z,88.36
2023-03-27T02:01:24.983Z,88.68
2023-03-27T02:02:29.909Z,88.96
2023-03-27T02:03:38.755Z,88.60
2023-03-27T02:04:44.961Z,89.20
2023-03-27T02:05:53.090Z,89.88
2023-03-27T02:06:59.184Z,90.03
2023-03-27T02:08:09.308Z,89.75
2023-03-27T02:09:20.562Z,90.28
2023-03-27T02:10:31.258Z,90.02
2023-03-27T02:11:55.228Z,90.28
2023-03-27T02:13:01.858Z,90.25
2023-03-27T02:14:08.008Z,90.26
2023-03-27T02:15:23.910Z,89.92
2023-03-27T02:16:33.780Z,90.34
2023-03-27T02:17:40.905Z,90.60
2023-03-27T02:18:49.550Z,90.28
2023-03-27T02:20:14.764Z,90.38
2023-03-27T02:21:16.972Z,90.50
2023-03-27T02:22:19.152Z,90.25
2023-03-27T02:23:40.557Z,90.46
2023-03-27T02:24:43.672Z,90.59
2023-03-27T02:25:46.156Z,90.79
2023-03-27T02:26:52.101Z,91.00
2023-03-27T02:28:12.140Z,90.62
2023-03-27T02:29:55.497Z,90.66
2023-03-27T02:31:34.834Z,90.47
2023-03-27T02:32:53.984Z,90.49
2023-03-27T02:34:19.191Z,89.82
2023-03-27T02:35:46.214Z,89.76
2023-03-27T02:37:02.242Z,89.78
2023-03-27T02:38:08.474Z,91.02
2023-03-27T02:39:14.573Z,91.41
2023-03-27T02:40:42.891Z,91.33
2023-03-27T02:41:51.202Z,91.04
2023-03-27T02:43:04.878Z,90.75
2023-03-27T02:44:18.340Z,90.43
2023-03-27T02:45:54.251Z,90.31
2023-03-27T02:47:13.090Z,90.59
2023-03-27T02:48:34.265Z,90.45
2023-03-27T02:49:40.322Z,90.26
2023-03-27T02:51:09.076Z,90.08
2023-03-27T02:52:18.641Z,90.43
2023-03-27T02:53:23.523Z,90.45
2023-03-27T02:54:36.046Z,90.49
2023-03-27T02:55:41.376Z,90.00
2023-03-27T02:56:49.846Z,89.55
2023-03-27T02:57:59.546Z,88.64
2023-03-27T02:59:04.103Z,89.47
2023-03-27T03:00:14.199Z,89.35
2023-03-27T03:01:19.007Z,87.85
2023-03-27T03:02:24.836Z,87.63
2023-03-27T03:03:35.370Z,86.59
2023-03-27T03:04:42.996Z,87.18
2023-03-27T03:05:45.229Z,86.78
2023-03-27T03:06:47.444Z,86.78
2023-03-27T03:07:49.981Z,86.46
2023-03-27T03:08:52.162Z,86.97
2023-03-27T03:09:54.503Z,87.43
2023-03-27T03:11:13.489Z,87.78
2023-03-27T03:12:16.102Z,88.09
2023-03-27T03:13:18.290Z,88.31
2023-03-27T03:14:23.363Z,88.27
2023-03-27T03:15:25.489Z,88.18
2023-03-27T03:16:29.238Z,88.50
2023-03-27T03:17:31.617Z,88.63
2023-03-27T03:18:33.750Z,88.99
2023-03-27T03:19:37.144Z,88.77
2023-03-27T03:20:39.898Z,88.68
2023-03-27T03:21:42.021Z,89.00
2023-03-27T03:22:44.165Z,89.13
2023-03-27T03:23:57.578Z,89.39
2023-03-27T03:25:00.946Z,88.95
2023-03-27T03:26:03.396Z,89.41
2023-03-27T03:27:05.874Z,88.71
2023-03-27T03:28:09.855Z,89.10
2023-03-27T03:29:12.954Z,88.92
2023-03-27T03:30:16.945Z,88.99
2023-03-27T03:31:19.831Z,89.28
2023-03-27T03:32:22.007Z,89.20
2023-03-27T03:33:25.973Z,89.72
2023-03-27T03:34:30.470Z,90.03
2023-03-27T03:35:35.027Z,89.73
2023-03-27T03:36:37.361Z,89.55
2023-03-27T03:37:40.265Z,89.79
2023-03-27T03:38:42.459Z,89.05
2023-03-27T03:39:44.612Z,88.38
2023-03-27T03:40:46.703Z,88.35
2023-03-27T03:41:48.830Z,88.90
2023-03-27T03:42:51.978Z,88.82
2023-03-27T03:43:54.101Z,89.06
2023-03-27T03:44:56.226Z,89.16
2023-03-27T03:45:58.858Z,89.11
2023-03-27T03:47:01.046Z,89.03
2023-03-27T03:48:03.220Z,88.52
2023-03-27T03:49:06.172Z,87.91
2023-03-27T03:50:08.683Z,87.90
2023-03-27T03:51:10.785Z,88.41
2023-03-27T03:52:12.896Z,88.45
2023-03-27T03:53:16.513Z,88.61
2023-03-27T03:54:18.612Z,89.16
2023-03-27T03:55:20.713Z,89.23
2023-03-27T03:56:23.028Z,89.24
2023-03-27T03:57:25.145Z,89.58
2023-03-27T03:58:34.485Z,89.74
2023-03-27T03:59:37.331Z,90.53
2023-03-27T04:00:40.288Z,90.42
2023-03-27T04:01:42.420Z,90.00
2023-03-27T04:02:45.436Z,89.45
2023-03-27T04:03:48.305Z,88.57
2023-03-27T04:04:50.845Z,89.30
2023-03-27T04:05:54.264Z,88.90
2023-03-27T04:06:58.388Z,89.42
2023-03-27T04:08:00.727Z,89.34
2023-03-27T04:09:02.890Z,89.62
2023-03-27T04:10:05.441Z,89.72
2023-03-27T04:11:08.765Z,89.76
2023-03-27T04:12:11.084Z,90.02
2023-03-27T04:13:13.157Z,90.09
2023-03-27T04:14:15.673Z,89.73
2023-03-27T04:15:18.244Z,89.92
2023-03-27T04:16:21.242Z,90.10
2023-03-27T04:17:26.356Z,90.03
2023-03-27T04:18:41.181Z,90.23
2023-03-27T04:19:46.305Z,89.85
2023-03-27T04:20:49.858Z,89.89
2023-03-27T04:21:54.527Z,89.99
2023-03-27T04:22:57.674Z,89.62
2023-03-27T04:24:02.741Z,89.09
2023-03-27T04:25:06.708Z,89.41
2023-03-27T04:26:12.270Z,89.70
2023-03-27T04:27:14.599Z,89.61
2023-03-27T04:28:16.856Z,90.20
2023-03-27T04:29:22.417Z,89.85
2023-03-27T04:30:25.350Z,89.69
2023-03-27T04:31:28.592Z,89.98
2023-03-27T04:32:31.252Z,90.38
2023-03-27T04:33:46.703Z,90.58
2023-03-27T04:34:50.279Z,90.16
2023-03-27T04:36:06.262Z,89.82
2023-03-27T04:37:09.673Z,89.59
2023-03-27T04:38:13.324Z,89.89
2023-03-27T04:39:16.650Z,89.88
2023-03-27T04:40:19.051Z,90.15
2023-03-27T04:41:21.422Z,90.32
2023-03-27T04:42:23.597Z,90.10
2023-03-27T04:43:28.848Z,89.70
2023-03-27T04:44:31.024Z,89.63
2023-03-27T04:45:33.768Z,89.80
2023-03-27T04:46:36.076Z,89.56
2023-03-27T04:47:38.355Z,89.83
2023-03-27T04:48:40.462Z,89.18
2023-03-27T04:49:46.652Z,88.60
2023-03-27T04:50:51.895Z,89.16
2023-03-27T04:51:54.040Z,89.72
2023-03-27T04:53:00.023Z,89.48
2023-03-27T04:54:05.312Z,88.73
2023-03-27T04:55:08.291Z,88.15
2023-03-27T04:56:11.190Z,87.80
2023-03-27T04:57:13.692Z,88.06
2023-03-27T04:58:15.830Z,88.55
2023-03-27T04:59:18.017Z,87.99
2023-03-27T05:00:23.147Z,87.71
2023-03-27T05:01:25.756Z,87.37
2023-03-27T05:02:28.240Z,88.20
2023-03-27T05:03:30.392Z,88.71
2023-03-27T05:04:33.503Z,88.50
2023-03-27T05:05:35.588Z,88.69
2023-03-27T05:06:39.919Z,88.71
2023-03-27T05:07:45.625Z,88.98
2023-03-27T05:08:47.774Z,89.32
2023-03-27T05:09:49.877Z,88.89
2023-03-27T05:10:52.199Z,88.91
2023-03-27T05:11:54.330Z,88.57
2023-03-27T05:12:58.383Z,87.09
2023-03-27T05:14:00.952Z,88.02
2023-03-27T05:15:06.274Z,87.39
2023-03-27T05:16:10.166Z,88.15
2023-03-27T05:17:13.008Z,88.42
2023-03-27T05:18:16.077Z,88.37
2023-03-27T05:19:21.641Z,88.12
2023-03-27T05:20:24.665Z,87.95
2023-03-27T05:21:27.291Z,87.32
2023-03-27T05:22:29.403Z,85.84
2023-03-27T05:23:31.531Z,86.31
2023-03-27T05:24:33.667Z,86.50
2023-03-27T05:25:35.774Z,87.37
2023-03-27T05:26:39.098Z,87.83
2023-03-27T05:27:45.734Z,88.00
2023-03-27T05:28:47.942Z,88.74
2023-03-27T05:29:50.298Z,88.94
2023-03-27T05:30:52.728Z,86.76
2023-03-27T05:31:54.988Z,86.18
2023-03-27T05:32:59.475Z,86.96
2023-03-27T05:34:02.672Z,87.19
2023-03-27T05:35:05.440Z,87.47
2023-03-27T05:36:07.884Z,87.69
2023-03-27T05:37:09.986Z,87.15
2023-03-27T05:38:12.599Z,87.07
2023-03-27T05:39:15.541Z,86.97
2023-03-27T05:40:22.505Z,86.00
2023-03-27T05:41:25.114Z,86.91
2023-03-27T05:42:27.281Z,87.21
2023-03-27T05:43:29.436Z,87.50
2023-03-27T05:44:32.001Z,87.79
2023-03-27T05:45:34.325Z,86.93
2023-03-27T05:46:36.490Z,86.64
2023-03-27T05:47:51.958Z,86.87
2023-03-27T05:48:54.268Z,86.40
2023-03-27T05:49:56.384Z,86.52
2023-03-27T05:50:58.550Z,86.85
2023-03-27T05:52:01.198Z,86.79
2023-03-27T05:53:10.177Z,87.12
2023-03-27T05:54:12.451Z,86.99
2023-03-27T05:55:15.177Z,87.31
2023-03-27T05:56:17.299Z,87.63
2023-03-27T05:57:19.460Z,87.91
2023-03-27T05:58:21.609Z,87.87
2023-03-27T05:59:23.742Z,87.47
2023-03-27T06:00:27.347Z,87.63
2023-03-27T06:01:29.640Z,87.85
2023-03-27T06:02:31.896Z,87.82
2023-03-27T06:03:38.445Z,87.45
2023-03-27T06:04:41.536Z,87.17
2023-03-27T06:05:44.162Z,87.34
2023-03-27T06:06:46.358Z,87.78
2023-03-27T06:07:48.450Z,87.46
2023-03-27T06:08:50.751Z,87.55
2023-03-27T06:09:52.958Z,87.03
2023-03-27T06:10:55.297Z,86.64
2023-03-27T06:11:58.462Z,87.01
2023-03-27T06:13:08.924Z,87.42
2023-03-27T06:14:11.089Z,88.01
2023-03-27T06:15:14.603Z,88.24
2023-03-27T06:16:20.651Z,87.00
2023-03-27T06:17:22.966Z,87.06
2023-03-27T06:18:25.257Z,85.29
2023-03-27T06:19:27.446Z,85.40
2023-03-27T06:20:30.102Z,84.62
2023-03-27T06:21:32.304Z,85.61
2023-03-27T06:22:34.487Z,86.27
2023-03-27T06:23:36.945Z,85.28
2023-03-27T06:24:39.054Z,86.22
2023-03-27T06:25:41.315Z,86.32
2023-03-27T06:26:43.610Z,85.57
2023-03-27T06:27:47.536Z,85.53
2023-03-27T06:28:50.077Z,85.84
2023-03-27T06:29:52.214Z,85.29
2023-03-27T06:30:54.666Z,85.35
2023-03-27T06:31:58.444Z,85.38
2023-03-27T06:33:01.205Z,84.42
2023-03-27T06:34:03.420Z,84.63
2023-03-27T06:35:05.954Z,84.85
2023-03-27T06:36:08.641Z,84.97
2023-03-27T06:37:10.806Z,85.83
2023-03-27T06:38:15.624Z,85.23
2023-03-27T06:39:17.891Z,86.32
2023-03-27T06:40:24.375Z,86.30
2023-03-27T06:41:26.538Z,86.51
2023-03-27T06:42:28.646Z,86.03
2023-03-27T06:43:30.864Z,86.55
2023-03-27T06:44:33.032Z,86.76
2023-03-27T06:45:38.660Z,86.08
2023-03-27T06:46:45.405Z,85.95
2023-03-27T06:47:54.863Z,85.37
2023-03-27T06:48:58.875Z,86.17
2023-03-27T06:50:01.232Z,85.73
2023-03-27T06:51:03.544Z,85.42
2023-03-27T06:52:05.862Z,85.56
2023-03-27T06:53:19.597Z,86.21
2023-03-27T06:54:29.414Z,87.22
2023-03-27T06:55:32.818Z,87.13
2023-03-27T06:56:35.180Z,87.21
2023-03-27T06:57:42.655Z,87.04
2023-03-27T06:58:45.224Z,86.50
2023-03-27T06:59:47.690Z,85.44
2023-03-27T07:00:50.507Z,85.49
2023-03-27T07:01:52.842Z,86.21
2023-03-27T07:02:59.783Z,86.00
2023-03-27T07:04:02.063Z,85.43
2023-03-27T07:05:05.531Z,85.82
2023-03-27T07:06:08.048Z,86.11
2023-03-27T07:07:11.157Z,86.25
2023-03-27T07:08:23.667Z,86.11
2023-03-27T07:09:27.413Z,86.07
2023-03-27T07:10:29.543Z,85.73
2023-03-27T07:11:32.192Z,85.57
2023-03-27T07:12:34.640Z,85.86
2023-03-27T07:13:37.388Z,85.98
2023-03-27T07:14:40.061Z,85.80
2023-03-27T07:15:42.241Z,86.34
2023-03-27T07:16:44.401Z,85.91
2023-03-27T07:18:07.403Z,86.34
2023-03-27T07:19:09.645Z,85.86
2023-03-27T07:20:12.528Z,86.18
2023-03-27T07:21:15.887Z,85.64
2023-03-27T07:22:17.982Z,85.81
2023-03-27T07:23:20.180Z,85.80
2023-03-27T07:24:22.266Z,86.57
2023-03-27T07:25:25.552Z,86.23
2023-03-27T07:26:28.711Z,86.50
2023-03-27T07:27:30.988Z,87.86
2023-03-27T07:28:33.079Z,87.11
2023-03-27T07:29:36.297Z,86.42
2023-03-27T07:30:39.076Z,85.96
2023-03-27T07:31:55.328Z,85.98
2023-03-27T07:32:59.066Z,85.58
2023-03-27T07:34:01.707Z,85.36
2023-03-27T07:35:08.637Z,85.56
2023-03-27T07:36:11.185Z,85.75
2023-03-27T07:37:14.579Z,85.19
2023-03-27T07:38:17.506Z,85.21
2023-03-27T07:39:19.636Z,84.56
2023-03-27T07:40:36.777Z,85.17
2023-03-27T07:41:41.358Z,85.29
2023-03-27T07:42:48.359Z,85.12
2023-03-27T07:43:50.654Z,85.16
2023-03-27T07:44:52.996Z,84.84
2023-03-27T07:45:55.293Z,85.61
2023-03-27T07:46:57.538Z,85.83
2023-03-27T07:48:14.100Z,86.48
2023-03-27T07:49:16.233Z,85.02
2023-03-27T07:50:21.677Z,85.91
2023-03-27T07:51:24.223Z,85.60
2023-03-27T07:52:26.280Z,85.56
2023-03-27T07:53:33.928Z,86.13
2023-03-27T07:54:36.781Z,86.91
2023-03-27T07:55:41.753Z,85.96
2023-03-27T07:56:44.019Z,84.76
2023-03-27T07:58:00.573Z,84.65
2023-03-27T07:59:04.325Z,84.96
2023-03-27T08:00:16.503Z,84.24
2023-03-27T08:01:18.778Z,84.92
2023-03-27T08:02:20.915Z,85.68
2023-03-27T08:03:26.160Z,86.16
2023-03-27T08:04:28.779Z,84.83
2023-03-27T08:05:30.990Z,85.31
2023-03-27T08:06:33.296Z,84.80
2023-03-27T08:07:36.304Z,84.80
2023-03-27T08:08:38.459Z,84.29
2023-03-27T08:09:40.670Z,84.22
2023-03-27T08:10:42.807Z,84.61
2023-03-27T08:11:45.004Z,85.64
2023-03-27T08:12:47.178Z,85.62
2023-03-27T08:13:49.289Z,85.50
2023-03-27T08:14:51.368Z,85.05
2023-03-27T08:16:02.941Z,85.47
2023-03-27T08:17:15.156Z,85.54
2023-03-27T08:18:18.020Z,85.68
2023-03-27T08:19:21.334Z,85.54
2023-03-27T08:20:25.822Z,86.02
2023-03-27T08:21:30.416Z,86.81
2023-03-27T08:22:32.527Z,86.24
2023-03-27T08:23:35.810Z,84.95
2023-03-27T08:24:37.928Z,85.24
2023-03-27T08:25:42.533Z,85.15
2023-03-27T08:26:45.603Z,85.80
2023-03-27T08:27:47.924Z,85.34
2023-03-27T08:28:54.134Z,84.61
2023-03-27T08:29:56.400Z,85.33
2023-03-27T08:31:02.633Z,86.09
2023-03-27T08:32:10.656Z,86.90
2023-03-27T08:33:12.849Z,86.11
2023-03-27T08:34:14.928Z,86.34
2023-03-27T08:35:18.148Z,86.77
2023-03-27T08:36:20.257Z,87.05
2023-03-27T08:37:22.478Z,87.76
2023-03-27T08:38:27.179Z,85.87
2023-03-27T08:39:30.837Z,86.86
2023-03-27T08:40:34.134Z,87.50
2023-03-27T08:41:42.490Z,88.15
2023-03-27T08:42:46.245Z,87.45
2023-03-27T08:43:48.487Z,87.52
2023-03-27T08:44:54.973Z,87.47
2023-03-27T08:46:06.018Z,87.64
2023-03-27T08:47:21.067Z,87.01
2023-03-27T08:48:27.506Z,87.70
2023-03-27T08:49:35.020Z,87.19
2023-03-27T08:50:51.284Z,87.05
2023-03-27T08:51:59.885Z,87.47
2023-03-27T08:53:03.022Z,87.67
2023-03-27T08:54:09.101Z,87.81
2023-03-27T08:55:22.343Z,87.43
2023-03-27T08:56:25.843Z,86.81
2023-03-27T08:57:28.507Z,88.23
2023-03-27T08:58:30.745Z,87.84
2023-03-27T08:59:32.931Z,87.28
2023-03-27T09:00:39.684Z,87.26
2023-03-27T09:02:04.197Z,87.62
2023-03-27T09:03:45.165Z,86.90
2023-03-27T09:05:08.536Z,87.12
2023-03-27T09:06:12.570Z,87.45
2023-03-27T09:07:34.303Z,87.33
2023-03-27T09:08:42.362Z,87.68
2023-03-27T09:10:17.495Z,87.96
2023-03-27T09:11:33.330Z,87.62
2023-03-27T09:12:52.598Z,87.64
2023-03-27T09:13:54.828Z,87.96
2023-03-27T09:15:16.332Z,88.10
2023-03-27T09:16:30.641Z,88.56
2023-03-27T09:17:37.535Z,88.08
2023-03-27T09:19:08.260Z,88.37
2023-03-27T09:20:17.998Z,88.59
2023-03-27T09:21:25.863Z,89.06
2023-03-27T09:22:31.375Z,88.06
2023-03-27T09:23:44.798Z,87.87
2023-03-27T09:24:49.234Z,87.96
2023-03-27T09:26:06.818Z,88.69
2023-03-27T09:27:13.990Z,89.03
2023-03-27T09:28:31.298Z,88.32
2023-03-27T09:29:37.997Z,88.41
2023-03-27T09:30:40.163Z,89.34
2023-03-27T09:31:47.535Z,89.29
2023-03-27T09:32:51.852Z,88.78
2023-03-27T09:33:55.057Z,88.82
2023-03-27T09:34:57.168Z,88.23
2023-03-27T09:35:59.786Z,88.15
2023-03-27T09:37:02.744Z,89.13
2023-03-27T09:38:21.902Z,89.14
2023-03-27T09:39:28.409Z,89.75
2023-03-27T09:40:45.333Z,90.42
2023-03-27T09:41:53.214Z,90.10
2023-03-27T09:42:55.373Z,88.29
2023-03-27T09:44:06.538Z,88.26
2023-03-27T09:45:09.654Z,88.04
2023-03-27T09:46:14.042Z,87.62
2023-03-27T09:47:19.747Z,87.72
2023-03-27T09:48:38.556Z,88.09
2023-03-27T09:49:44.835Z,88.48
2023-03-27T09:50:49.192Z,87.01
2023-03-27T09:51:55.334Z,87.62
2023-03-27T09:53:28.025Z,87.74
2023-03-27T09:54:31.802Z,87.51
2023-03-27T09:55:35.041Z,87.80
2023-03-27T09:56:39.412Z,87.51
2023-03-27T09:57:41.554Z,87.59
2023-03-27T09:58:46.934Z,88.51
2023-03-27T10:00:27.720Z,88.64
2023-03-27T10:01:34.519Z,89.07
2023-03-27T10:02:36.961Z,89.33
2023-03-27T10:03:48.781Z,89.15
2023-03-27T10:04:59.670Z,88.54
2023-03-27T10:06:14.475Z,88.95
2023-03-27T10:07:24.422Z,88.83
2023-03-27T10:08:40.878Z,87.82
2023-03-27T10:09:43.031Z,88.38
2023-03-27T10:10:45.900Z,87.56
2023-03-27T10:11:50.490Z,88.17
2023-03-27T10:12:55.988Z,87.64
2023-03-27T10:14:00.506Z,88.09
2023-03-27T10:15:04.498Z,88.35
2023-03-27T10:16:07.058Z,88.55
2023-03-27T10:17:37.383Z,86.75
2023-03-27T10:18:43.455Z,85.84
2023-03-27T10:19:45.589Z,86.46
2023-03-27T10:20:52.582Z,86.96
2023-03-27T10:22:01.172Z,87.15
2023-03-27T10:23:08.500Z,85.09
2023-03-27T10:24:19.539Z,85.60
2023-03-27T10:25:27.261Z,85.90
2023-03-27T10:26:31.871Z,84.28
2023-03-27T10:27:36.244Z,84.67
2023-03-27T10:28:40.883Z,86.53
2023-03-27T10:29:43.060Z,86.46
2023-03-27T10:30:45.824Z,85.04
2023-03-27T10:31:55.133Z,85.72
2023-03-27T10:32:57.259Z,85.55
2023-03-27T10:34:05.958Z,85.81
2023-03-27T10:35:38.214Z,86.59
2023-03-27T10:36:40.724Z,86.18
2023-03-27T10:37:50.286Z,86.33
2023-03-27T10:39:06.506Z,85.91
2023-03-27T10:40:17.212Z,86.29
2023-03-27T10:41:27.899Z,86.40
2023-03-27T10:42:32.191Z,87.61
2023-03-27T10:43:39.960Z,88.19
2023-03-27T10:44:44.128Z,86.48
2023-03-27T10:45:56.457Z,85.98
2023-03-27T10:46:58.683Z,85.38
2023-03-27T10:48:01.697Z,86.06
2023-03-27T10:49:10.002Z,86.52
2023-03-27T10:50:19.834Z,85.58
2023-03-27T10:51:46.962Z,85.36
2023-03-27T10:53:06.265Z,85.13
2023-03-27T10:54:42.709Z,85.25
2023-03-27T10:55:59.940Z,86.12
2023-03-27T10:57:06.225Z,86.07
2023-03-27T10:58:22.490Z,86.79
2023-03-27T10:59:41.861Z,86.32
2023-03-27T11:00:50.844Z,87.00
2023-03-27T11:02:02.463Z,86.23
2023-03-27T11:03:25.697Z,87.08
2023-03-27T11:04:46.673Z,87.53
2023-03-27T11:05:53.660Z,87.12
2023-03-27T11:06:57.671Z,87.01
2023-03-27T11:08:08.509Z,87.23
2023-03-27T11:09:16.193Z,87.91
2023-03-27T11:10:38.536Z,88.27
2023-03-27T11:11:45.788Z,88.36
2023-03-27T11:12:56.605Z,87.74
2023-03-27T11:14:02.507Z,88.18
2023-03-27T11:15:12.041Z,88.24
2023-03-27T11:16:41.899Z,88.31
2023-03-27T11:17:56.243Z,88.14
2023-03-27T11:19:11.084Z,86.32
2023-03-27T11:20:35.897Z,86.72
2023-03-27T11:21:47.725Z,87.22
2023-03-27T11:22:57.623Z,87.53
2023-03-27T11:24:00.408Z,87.00
2023-03-27T11:25:34.751Z,87.24
2023-03-27T11:26:53.993Z,87.38
2023-03-27T11:28:05.229Z,86.51
2023-03-27T11:29:09.656Z,86.47
2023-03-27T11:30:34.328Z,86.74
2023-03-27T11:31:46.403Z,87.90
2023-03-27T11:33:05.276Z,87.89
2023-03-27T11:34:29.067Z,87.65
2023-03-27T11:35:38.374Z,87.83
2023-03-27T11:36:51.582Z,87.45
2023-03-27T11:37:59.602Z,86.70
2023-03-27T11:39:06.569Z,86.50
2023-03-27T11:40:20.333Z,86.78
2023-03-27T11:41:22.528Z,87.74
2023-03-27T11:42:28.077Z,87.78
2023-03-27T11:43:30.472Z,87.91
2023-03-27T11:44:32.578Z,87.03
2023-03-27T11:46:00.871Z,86.58
2023-03-27T11:47:27.834Z,86.62
2023-03-27T11:48:51.629Z,86.20
2023-03-27T11:50:22.175Z,86.84
2023-03-27T11:51:28.723Z,86.87
2023-03-27T11:52:46.623Z,87.82
2023-03-27T11:53:56.641Z,88.42
2023-03-27T11:55:08.680Z,88.52
2023-03-27T11:56:34.917Z,88.01
2023-03-27T11:58:09.748Z,88.21
2023-03-27T11:59:33.157Z,87.94
2023-03-27T12:00:39.532Z,87.77
2023-03-27T12:01:50.904Z,87.32
2023-03-27T12:03:07.032Z,87.27
2023-03-27T12:04:40.112Z,86.83
2023-03-27T12:05:57.383Z,86.82
2023-03-27T12:07:12.638Z,86.68
2023-03-27T12:08:24.815Z,86.04
2023-03-27T12:09:42.244Z,86.12
2023-03-27T12:10:46.832Z,86.27
2023-03-27T12:11:58.051Z,86.61
2023-03-27T12:13:11.856Z,87.02
2023-03-27T12:14:40.854Z,87.14
2023-03-27T12:16:27.588Z,87.80
2023-03-27T12:17:32.752Z,87.89
2023-03-27T12:18:54.515Z,87.10
2023-03-27T12:20:43.522Z,86.16
2023-03-27T12:21:58.501Z,86.90
2023-03-27T12:23:25.650Z,87.36
2023-03-27T12:24:33.177Z,87.09
2023-03-27T12:26:03.774Z,87.23
2023-03-27T12:27:20.572Z,87.55
2023-03-27T12:28:34.828Z,87.78
2023-03-27T12:29:52.043Z,87.54
2023-03-27T12:31:00.639Z,86.24
2023-03-27T12:32:40.672Z,86.41
2023-03-27T12:34:01.342Z,86.03
2023-03-27T12:35:12.402Z,86.16
2023-03-27T12:36:19.148Z,86.02
2023-03-27T12:37:25.113Z,85.45
2023-03-27T12:38:37.738Z,85.68
2023-03-27T12:39:51.875Z,86.05
2023-03-27T12:41:00.446Z,86.61
2023-03-27T12:42:13.209Z,85.95
2023-03-27T12:43:18.406Z,85.83
2023-03-27T12:44:29.380Z,84.75
2023-03-27T12:45:33.147Z,85.25
2023-03-27T12:46:40.893Z,80.91
2023-03-27T12:48:07.818Z,80.57
2023-03-27T12:49:13.229Z,81.16
2023-03-27T12:50:21.557Z,80.00
2023-03-27T12:51:38.450Z,77.03
2023-03-27T12:52:45.553Z,76.68
2023-03-27T12:53:50.299Z,76.79
2023-03-27T12:55:04.226Z,78.11
2023-03-27T12:56:30.000Z,77.12
2023-03-27T12:57:42.141Z,76.50
2023-03-27T12:58:46.192Z,76.74
2023-03-27T12:59:48.256Z,74.39
2023-03-27T13:01:00.325Z,75.96
2023-03-27T13:02:03.363Z,76.17
2023-03-27T13:03:11.870Z,75.05
2023-03-27T13:04:32.767Z,74.34
2023-03-27T13:06:12.609Z,73.77
2023-03-27T13:07:34.171Z,74.21
2023-03-27T13:08:55.908Z,73.34
2023-03-27T13:10:31.035Z,72.71
2023-03-27T13:11:54.654Z,73.21
2023-03-27T13:13:21.794Z,74.37
2023-03-27T13:14:32.986Z,73.28
2023-03-27T13:15:47.889Z,72.14
2023-03-27T13:17:09.601Z,72.55
2023-03-27T13:18:20.810Z,73.81
2023-03-27T13:19:26.133Z,72.58
2023-03-27T13:20:30.814Z,71.82
2023-03-27T13:21:42.651Z,72.38
2023-03-27T13:23:15.612Z,70.83
2023-03-27T13:24:42.464Z,70.33
2023-03-27T13:26:03.390Z,70.74
2023-03-27T13:27:38.980Z,70.28
2023-03-27T13:28:49.200Z,71.28
2023-03-27T13:29:52.976Z,70.29
2023-03-27T13:30:57.676Z,71.24
2023-03-27T13:32:18.005Z,70.49
2023-03-27T13:33:23.068Z,71.71
2023-03-27T13:34:37.855Z,70.08
2023-03-27T13:35:53.155Z,70.46
2023-03-27T13:37:07.498Z,69.57
2023-03-27T13:38:10.525Z,69.27
2023-03-27T13:39:24.519Z,70.22
2023-03-27T13:40:29.792Z,70.95
2023-03-27T13:41:43.906Z,68.69
2023-03-27T13:42:51.801Z,68.66
2023-03-27T13:43:54.191Z,68.96
2023-03-27T13:45:22.173Z,69.67
2023-03-27T13:46:29.245Z,68.72
2023-03-27T13:47:34.139Z,69.17
2023-03-27T13:48:58.123Z,69.27
2023-03-27T13:50:32.027Z,69.09
2023-03-27T13:52:16.080Z,68.88
2023-03-27T13:53:55.084Z,68.23
2023-03-27T13:55:29.347Z,68.53
2023-03-27T13:56:35.029Z,69.75
2023-03-27T13:57:49.114Z,68.06
2023-03-27T13:59:28.839Z,69.83
2023-03-27T14:00:54.524Z,67.60
2023-03-27T14:02:04.511Z,68.56
2023-03-27T14:03:21.728Z,67.95
2023-03-27T14:04:23.889Z,67.64
2023-03-27T14:05:37.237Z,67.91
2023-03-27T14:07:10.159Z,67.35
2023-03-27T14:08:29.286Z,67.50
2023-03-27T14:10:00.927Z,67.87
2023-03-27T14:11:12.572Z,67.46
2023-03-27T14:12:20.675Z,67.82
2023-03-27T14:13:31.627Z,67.91
2023-03-27T14:14:37.240Z,67.44
2023-03-27T14:15:47.378Z,67.15
2023-03-27T14:17:11.287Z,67.63
2023-03-27T14:18:44.036Z,67.85
2023-03-27T14:19:48.951Z,68.01
2023-03-27T14:21:00.704Z,68.60
2023-03-27T14:22:05.376Z,68.95
2023-03-27T14:23:14.143Z,67.74
2023-03-27T14:24:30.537Z,68.34
2023-03-27T14:25:36.467Z,67.87
2023-03-27T14:26:41.804Z,68.90
2023-03-27T14:27:45.771Z,67.58
2023-03-27T14:28:54.374Z,67.10
2023-03-27T14:30:09.208Z,67.85
2023-03-27T14:31:14.787Z,67.16
2023-03-27T14:32:18.133Z,67.41
2023-03-27T14:33:20.564Z,67.37
2023-03-27T14:34:24.914Z,67.75
2023-03-27T14:35:31.463Z,68.56
2023-03-27T14:36:34.155Z,68.24
2023-03-27T14:37:36.836Z,68.71
2023-03-27T14:38:39.012Z,67.14
2023-03-27T14:39:41.206Z,66.14
2023-03-27T14:40:47.562Z,65.50
2023-03-27T14:41:56.648Z,66.15
2023-03-27T14:43:00.726Z,66.12
2023-03-27T14:44:04.765Z,65.36